sensor_id;sensor_type;location;lat;lon;timestamp;P1;durP1;ratioP1;P2;durP2;ratioP2
22131;SDS011;11232;51.748;19.390;2023-12-20T00:00:05;33.33;;;17.40;;
22131;SDS011;11232;51.748;19.390;2023-12-20T00:02:31;30.83;;;15.37;;
22131;SDS011;11232;51.748;19.390;2023-12-20T00:04:57;28.53;;;15.80;;
22131;SDS011;11232;51.748;19.390;2023-12-20T00:07:22;30.83;;;15.33;;
22131;SDS011;11232;51.748;19.390;2023-12-20T00:09:48;25.73;;;14.87;;
22131;SDS011;11232;51.748;19.390;2023-12-20T00:12:13;29.27;;;15.50;;
22131;SDS011;11232;51.748;19.390;2023-12-20T00:14:42;31.03;;;15.57;;
22131;SDS011;11232;51.748;19.390;2023-12-20T00:17:07;29.63;;;16.23;;
22131;SDS011;11232;51.748;19.390;2023-12-20T00:19:33;31.43;;;16.70;;
22131;SDS011;11232;51.748;19.390;2023-12-20T00:21:58;31.57;;;16.87;;
22131;SDS011;11232;51.748;19.390;2023-12-20T00:24:24;32.93;;;16.70;;
22131;SDS011;11232;51.748;19.390;2023-12-20T00:26:50;28.33;;;16.83;;
22131;SDS011;11232;51.748;19.390;2023-12-20T00:29:16;33.13;;;17.13;;
22131;SDS011;11232;51.748;19.390;2023-12-20T00:31:41;35.80;;;18.27;;
22131;SDS011;11232;51.748;19.390;2023-12-20T00:34:07;31.30;;;17.33;;
22131;SDS011;11232;51.748;19.390;2023-12-20T00:36:32;28.70;;;17.07;;
22131;SDS011;11232;51.748;19.390;2023-12-20T00:38:58;31.53;;;16.87;;
22131;SDS011;11232;51.748;19.390;2023-12-20T00:41:24;29.10;;;16.73;;
22131;SDS011;11232;51.748;19.390;2023-12-20T00:43:49;33.60;;;19.27;;
22131;SDS011;11232;51.748;19.390;2023-12-20T00:46:15;30.30;;;16.83;;
22131;SDS011;11232;51.748;19.390;2023-12-20T00:48:40;32.77;;;17.90;;
22131;SDS011;11232;51.748;19.390;2023-12-20T00:51:07;31.23;;;13.83;;
22131;SDS011;11232;51.748;19.390;2023-12-20T00:53:33;28.70;;;16.80;;
22131;SDS011;11232;51.748;19.390;2023-12-20T00:55:58;26.00;;;16.63;;
22131;SDS011;11232;51.748;19.390;2023-12-20T00:58:24;29.80;;;17.53;;
22131;SDS011;11232;51.748;19.390;2023-12-20T01:00:49;26.63;;;16.63;;
22131;SDS011;11232;51.748;19.390;2023-12-20T01:03:16;27.67;;;17.03;;
22131;SDS011;11232;51.748;19.390;2023-12-20T01:05:41;28.97;;;16.23;;
22131;SDS011;11232;51.748;19.390;2023-12-20T01:08:07;29.33;;;16.60;;
22131;SDS011;11232;51.748;19.390;2023-12-20T01:10:32;25.43;;;13.67;;
22131;SDS011;11232;51.748;19.390;2023-12-20T01:12:58;27.27;;;15.67;;
22131;SDS011;11232;51.748;19.390;2023-12-20T01:15:23;27.67;;;15.43;;
22131;SDS011;11232;51.748;19.390;2023-12-20T01:17:49;26.10;;;14.60;;
22131;SDS011;11232;51.748;19.390;2023-12-20T01:20:15;26.67;;;14.87;;
22131;SDS011;11232;51.748;19.390;2023-12-20T01:22:40;22.60;;;13.50;;
22131;SDS011;11232;51.748;19.390;2023-12-20T01:25:07;27.47;;;14.03;;
22131;SDS011;11232;51.748;19.390;2023-12-20T01:27:33;24.53;;;15.47;;
22131;SDS011;11232;51.748;19.390;2023-12-20T01:29:59;24.80;;;14.37;;
22131;SDS011;11232;51.748;19.390;2023-12-20T01:32:24;26.27;;;14.70;;
22131;SDS011;11232;51.748;19.390;2023-12-20T01:34:50;27.57;;;15.20;;
22131;SDS011;11232;51.748;19.390;2023-12-20T01:37:16;26.70;;;14.67;;
22131;SDS011;11232;51.748;19.390;2023-12-20T01:39:41;24.93;;;14.53;;
22131;SDS011;11232;51.748;19.390;2023-12-20T01:42:07;24.37;;;14.27;;
22131;SDS011;11232;51.748;19.390;2023-12-20T01:44:32;22.70;;;13.77;;
22131;SDS011;11232;51.748;19.390;2023-12-20T01:46:58;22.67;;;13.53;;
22131;SDS011;11232;51.748;19.390;2023-12-20T01:49:24;22.73;;;12.90;;
22131;SDS011;11232;51.748;19.390;2023-12-20T01:51:50;19.93;;;12.17;;
22131;SDS011;11232;51.748;19.390;2023-12-20T01:54:16;22.50;;;13.13;;
22131;SDS011;11232;51.748;19.390;2023-12-20T01:56:42;21.07;;;12.83;;
22131;SDS011;11232;51.748;19.390;2023-12-20T01:59:08;21.53;;;12.17;;
22131;SDS011;11232;51.748;19.390;2023-12-20T02:01:35;21.17;;;12.40;;
22131;SDS011;11232;51.748;19.390;2023-12-20T02:04:00;19.53;;;11.90;;
22131;SDS011;11232;51.748;19.390;2023-12-20T02:06:29;18.20;;;10.60;;
22131;SDS011;11232;51.748;19.390;2023-12-20T02:08:57;18.20;;;11.17;;
22131;SDS011;11232;51.748;19.390;2023-12-20T02:11:23;19.83;;;11.63;;
22131;SDS011;11232;51.748;19.390;2023-12-20T02:13:50;17.30;;;11.80;;
22131;SDS011;11232;51.748;19.390;2023-12-20T02:16:16;18.93;;;11.53;;
22131;SDS011;11232;51.748;19.390;2023-12-20T02:18:42;18.40;;;11.07;;
22131;SDS011;11232;51.748;19.390;2023-12-20T02:21:09;18.13;;;10.73;;
22131;SDS011;11232;51.748;19.390;2023-12-20T02:23:35;15.73;;;9.87;;
22131;SDS011;11232;51.748;19.390;2023-12-20T02:26:01;14.77;;;9.73;;
22131;SDS011;11232;51.748;19.390;2023-12-20T02:28:27;13.23;;;9.30;;
22131;SDS011;11232;51.748;19.390;2023-12-20T02:30:53;16.33;;;9.97;;
22131;SDS011;11232;51.748;19.390;2023-12-20T02:33:19;14.70;;;9.50;;
22131;SDS011;11232;51.748;19.390;2023-12-20T02:35:44;14.97;;;9.10;;
22131;SDS011;11232;51.748;19.390;2023-12-20T02:38:10;14.97;;;9.00;;
22131;SDS011;11232;51.748;19.390;2023-12-20T02:40:35;15.70;;;9.80;;
22131;SDS011;11232;51.748;19.390;2023-12-20T02:43:01;16.67;;;10.13;;
22131;SDS011;11232;51.748;19.390;2023-12-20T02:45:27;15.20;;;9.80;;
22131;SDS011;11232;51.748;19.390;2023-12-20T02:47:52;14.00;;;9.43;;
22131;SDS011;11232;51.748;19.390;2023-12-20T02:50:18;16.80;;;10.30;;
22131;SDS011;11232;51.748;19.390;2023-12-20T02:52:44;14.43;;;8.70;;
22131;SDS011;11232;51.748;19.390;2023-12-20T02:55:10;18.27;;;9.80;;
22131;SDS011;11232;51.748;19.390;2023-12-20T02:57:36;16.07;;;9.67;;
22131;SDS011;11232;51.748;19.390;2023-12-20T03:00:06;14.07;;;8.53;;
22131;SDS011;11232;51.748;19.390;2023-12-20T03:02:35;12.50;;;8.07;;
22131;SDS011;11232;51.748;19.390;2023-12-20T03:05:02;13.60;;;8.07;;
22131;SDS011;11232;51.748;19.390;2023-12-20T03:07:27;13.43;;;8.20;;
22131;SDS011;11232;51.748;19.390;2023-12-20T03:09:53;13.80;;;8.37;;
22131;SDS011;11232;51.748;19.390;2023-12-20T03:12:19;13.37;;;8.17;;
22131;SDS011;11232;51.748;19.390;2023-12-20T03:14:44;11.83;;;7.93;;
22131;SDS011;11232;51.748;19.390;2023-12-20T03:17:10;13.50;;;8.63;;
22131;SDS011;11232;51.748;19.390;2023-12-20T03:19:36;12.33;;;8.03;;
22131;SDS011;11232;51.748;19.390;2023-12-20T03:22:01;12.03;;;8.23;;
22131;SDS011;11232;51.748;19.390;2023-12-20T03:24:27;14.20;;;7.93;;
22131;SDS011;11232;51.748;19.390;2023-12-20T03:26:53;12.13;;;8.03;;
22131;SDS011;11232;51.748;19.390;2023-12-20T03:29:18;15.77;;;9.37;;
22131;SDS011;11232;51.748;19.390;2023-12-20T03:31:44;14.03;;;8.80;;
22131;SDS011;11232;51.748;19.390;2023-12-20T03:34:10;13.80;;;8.83;;
22131;SDS011;11232;51.748;19.390;2023-12-20T03:36:36;12.53;;;9.10;;
22131;SDS011;11232;51.748;19.390;2023-12-20T03:39:02;15.00;;;9.57;;
22131;SDS011;11232;51.748;19.390;2023-12-20T03:41:27;16.07;;;9.47;;
22131;SDS011;11232;51.748;19.390;2023-12-20T03:43:53;16.70;;;10.33;;
22131;SDS011;11232;51.748;19.390;2023-12-20T03:46:19;16.33;;;9.83;;
22131;SDS011;11232;51.748;19.390;2023-12-20T03:48:44;13.13;;;8.97;;
22131;SDS011;11232;51.748;19.390;2023-12-20T03:51:10;16.17;;;8.80;;
22131;SDS011;11232;51.748;19.390;2023-12-20T03:53:36;12.07;;;8.37;;
22131;SDS011;11232;51.748;19.390;2023-12-20T03:56:01;13.10;;;8.47;;
22131;SDS011;11232;51.748;19.390;2023-12-20T03:58:27;14.33;;;9.13;;
22131;SDS011;11232;51.748;19.390;2023-12-20T04:00:52;13.13;;;8.47;;
22131;SDS011;11232;51.748;19.390;2023-12-20T04:03:18;12.97;;;8.87;;
22131;SDS011;11232;51.748;19.390;2023-12-20T04:05:43;13.87;;;8.53;;
22131;SDS011;11232;51.748;19.390;2023-12-20T04:08:09;9.73;;;7.53;;
22131;SDS011;11232;51.748;19.390;2023-12-20T04:10:35;14.07;;;8.47;;
22131;SDS011;11232;51.748;19.390;2023-12-20T04:13:02;12.07;;;7.63;;
22131;SDS011;11232;51.748;19.390;2023-12-20T04:15:28;11.37;;;7.80;;
22131;SDS011;11232;51.748;19.390;2023-12-20T04:17:53;13.13;;;8.13;;
22131;SDS011;11232;51.748;19.390;2023-12-20T04:20:19;11.63;;;7.13;;
22131;SDS011;11232;51.748;19.390;2023-12-20T04:22:45;11.53;;;6.83;;
22131;SDS011;11232;51.748;19.390;2023-12-20T04:25:10;9.00;;;6.27;;
22131;SDS011;11232;51.748;19.390;2023-12-20T04:27:36;9.80;;;6.30;;
22131;SDS011;11232;51.748;19.390;2023-12-20T04:30:02;9.23;;;6.40;;
22131;SDS011;11232;51.748;19.390;2023-12-20T04:32:27;9.27;;;7.00;;
22131;SDS011;11232;51.748;19.390;2023-12-20T04:34:53;9.00;;;6.23;;
22131;SDS011;11232;51.748;19.390;2023-12-20T04:37:18;9.97;;;7.13;;
22131;SDS011;11232;51.748;19.390;2023-12-20T04:39:44;11.00;;;6.67;;
22131;SDS011;11232;51.748;19.390;2023-12-20T04:42:10;11.30;;;6.20;;
22131;SDS011;11232;51.748;19.390;2023-12-20T04:44:35;9.30;;;6.10;;
22131;SDS011;11232;51.748;19.390;2023-12-20T04:47:01;9.27;;;5.80;;
22131;SDS011;11232;51.748;19.390;2023-12-20T04:49:26;8.53;;;6.23;;
22131;SDS011;11232;51.748;19.390;2023-12-20T04:51:52;11.00;;;6.77;;
22131;SDS011;11232;51.748;19.390;2023-12-20T04:54:17;10.57;;;6.60;;
22131;SDS011;11232;51.748;19.390;2023-12-20T04:56:43;10.30;;;7.17;;
22131;SDS011;11232;51.748;19.390;2023-12-20T04:59:09;12.00;;;7.77;;
22131;SDS011;11232;51.748;19.390;2023-12-20T05:01:34;13.13;;;8.20;;
22131;SDS011;11232;51.748;19.390;2023-12-20T05:04:00;12.63;;;7.80;;
22131;SDS011;11232;51.748;19.390;2023-12-20T05:06:25;11.70;;;8.13;;
22131;SDS011;11232;51.748;19.390;2023-12-20T05:08:51;10.67;;;7.23;;
22131;SDS011;11232;51.748;19.390;2023-12-20T05:11:16;12.93;;;7.83;;
22131;SDS011;11232;51.748;19.390;2023-12-20T05:13:42;15.37;;;8.07;;
22131;SDS011;11232;51.748;19.390;2023-12-20T05:16:08;13.43;;;8.17;;
22131;SDS011;11232;51.748;19.390;2023-12-20T05:18:34;14.53;;;8.27;;
22131;SDS011;11232;51.748;19.390;2023-12-20T05:20:59;13.73;;;7.87;;
22131;SDS011;11232;51.748;19.390;2023-12-20T05:23:25;13.70;;;8.07;;
22131;SDS011;11232;51.748;19.390;2023-12-20T05:25:51;12.77;;;7.90;;
22131;SDS011;11232;51.748;19.390;2023-12-20T05:28:16;10.70;;;7.07;;
22131;SDS011;11232;51.748;19.390;2023-12-20T05:30:42;10.77;;;6.93;;
22131;SDS011;11232;51.748;19.390;2023-12-20T05:33:08;11.67;;;6.93;;
22131;SDS011;11232;51.748;19.390;2023-12-20T05:35:34;12.90;;;7.30;;
22131;SDS011;11232;51.748;19.390;2023-12-20T05:38:00;12.17;;;7.43;;
22131;SDS011;11232;51.748;19.390;2023-12-20T05:40:25;10.17;;;6.53;;
22131;SDS011;11232;51.748;19.390;2023-12-20T05:42:51;10.23;;;6.90;;
22131;SDS011;11232;51.748;19.390;2023-12-20T05:45:16;10.67;;;6.67;;
22131;SDS011;11232;51.748;19.390;2023-12-20T05:47:42;9.57;;;6.23;;
22131;SDS011;11232;51.748;19.390;2023-12-20T05:50:08;9.27;;;6.37;;
22131;SDS011;11232;51.748;19.390;2023-12-20T05:52:34;9.87;;;5.53;;
22131;SDS011;11232;51.748;19.390;2023-12-20T05:54:59;9.47;;;5.90;;
22131;SDS011;11232;51.748;19.390;2023-12-20T05:57:28;8.23;;;5.33;;
22131;SDS011;11232;51.748;19.390;2023-12-20T05:59:53;8.90;;;5.63;;
22131;SDS011;11232;51.748;19.390;2023-12-20T06:02:19;9.27;;;5.50;;
22131;SDS011;11232;51.748;19.390;2023-12-20T06:04:45;13.63;;;8.03;;
22131;SDS011;11232;51.748;19.390;2023-12-20T06:07:14;12.23;;;7.23;;
22131;SDS011;11232;51.748;19.390;2023-12-20T06:09:40;13.73;;;6.70;;
22131;SDS011;11232;51.748;19.390;2023-12-20T06:12:06;10.53;;;6.60;;
22131;SDS011;11232;51.748;19.390;2023-12-20T06:14:33;10.77;;;6.93;;
22131;SDS011;11232;51.748;19.390;2023-12-20T06:16:58;10.83;;;6.87;;
22131;SDS011;11232;51.748;19.390;2023-12-20T06:19:24;11.60;;;6.30;;
22131;SDS011;11232;51.748;19.390;2023-12-20T06:21:49;9.30;;;5.33;;
22131;SDS011;11232;51.748;19.390;2023-12-20T06:24:15;10.40;;;6.37;;
22131;SDS011;11232;51.748;19.390;2023-12-20T06:26:41;10.50;;;6.33;;
22131;SDS011;11232;51.748;19.390;2023-12-20T06:29:06;10.70;;;6.07;;
22131;SDS011;11232;51.748;19.390;2023-12-20T06:31:32;9.10;;;6.20;;
22131;SDS011;11232;51.748;19.390;2023-12-20T06:33:58;10.13;;;6.57;;
22131;SDS011;11232;51.748;19.390;2023-12-20T06:36:25;11.93;;;6.47;;
22131;SDS011;11232;51.748;19.390;2023-12-20T06:38:54;8.47;;;5.70;;
22131;SDS011;11232;51.748;19.390;2023-12-20T06:41:19;9.30;;;6.00;;
22131;SDS011;11232;51.748;19.390;2023-12-20T06:43:45;9.77;;;6.13;;
22131;SDS011;11232;51.748;19.390;2023-12-20T06:46:11;8.83;;;6.03;;
22131;SDS011;11232;51.748;19.390;2023-12-20T06:48:38;9.50;;;5.67;;
22131;SDS011;11232;51.748;19.390;2023-12-20T06:51:04;9.00;;;5.50;;
22131;SDS011;11232;51.748;19.390;2023-12-20T06:53:30;10.27;;;5.80;;
22131;SDS011;11232;51.748;19.390;2023-12-20T06:55:55;8.87;;;5.70;;
22131;SDS011;11232;51.748;19.390;2023-12-20T06:58:21;10.23;;;6.07;;
22131;SDS011;11232;51.748;19.390;2023-12-20T07:00:47;10.87;;;7.10;;
22131;SDS011;11232;51.748;19.390;2023-12-20T07:03:13;11.37;;;6.30;;
22131;SDS011;11232;51.748;19.390;2023-12-20T07:05:39;11.13;;;6.43;;
22131;SDS011;11232;51.748;19.390;2023-12-20T07:08:06;10.40;;;6.27;;
22131;SDS011;11232;51.748;19.390;2023-12-20T07:10:31;9.97;;;6.30;;
22131;SDS011;11232;51.748;19.390;2023-12-20T07:12:57;10.50;;;6.03;;
22131;SDS011;11232;51.748;19.390;2023-12-20T07:15:23;12.03;;;7.30;;
22131;SDS011;11232;51.748;19.390;2023-12-20T07:17:48;9.70;;;6.67;;
22131;SDS011;11232;51.748;19.390;2023-12-20T07:20:14;13.33;;;7.53;;
22131;SDS011;11232;51.748;19.390;2023-12-20T07:22:40;11.37;;;7.40;;
22131;SDS011;11232;51.748;19.390;2023-12-20T07:25:06;12.87;;;7.60;;
22131;SDS011;11232;51.748;19.390;2023-12-20T07:27:32;11.47;;;7.13;;
22131;SDS011;11232;51.748;19.390;2023-12-20T07:29:57;11.73;;;7.70;;
22131;SDS011;11232;51.748;19.390;2023-12-20T07:32:23;11.07;;;6.53;;
22131;SDS011;11232;51.748;19.390;2023-12-20T07:34:49;12.10;;;7.50;;
22131;SDS011;11232;51.748;19.390;2023-12-20T07:37:14;9.90;;;7.17;;
22131;SDS011;11232;51.748;19.390;2023-12-20T07:39:40;12.13;;;7.60;;
22131;SDS011;11232;51.748;19.390;2023-12-20T07:42:06;12.73;;;7.50;;
22131;SDS011;11232;51.748;19.390;2023-12-20T07:44:33;10.60;;;6.50;;
22131;SDS011;11232;51.748;19.390;2023-12-20T07:46:58;12.00;;;7.17;;
22131;SDS011;11232;51.748;19.390;2023-12-20T07:49:24;11.33;;;7.00;;
22131;SDS011;11232;51.748;19.390;2023-12-20T07:51:50;9.83;;;6.60;;
22131;SDS011;11232;51.748;19.390;2023-12-20T07:54:15;10.37;;;6.30;;
22131;SDS011;11232;51.748;19.390;2023-12-20T07:56:41;9.97;;;6.47;;
22131;SDS011;11232;51.748;19.390;2023-12-20T07:59:07;8.27;;;5.97;;
22131;SDS011;11232;51.748;19.390;2023-12-20T08:01:32;9.33;;;6.20;;
22131;SDS011;11232;51.748;19.390;2023-12-20T08:03:58;10.33;;;6.30;;
22131;SDS011;11232;51.748;19.390;2023-12-20T08:06:24;10.93;;;6.37;;
22131;SDS011;11232;51.748;19.390;2023-12-20T08:08:49;9.67;;;6.13;;
22131;SDS011;11232;51.748;19.390;2023-12-20T08:11:15;10.70;;;6.53;;
22131;SDS011;11232;51.748;19.390;2023-12-20T08:13:40;11.00;;;6.77;;
22131;SDS011;11232;51.748;19.390;2023-12-20T08:16:06;10.43;;;6.30;;
22131;SDS011;11232;51.748;19.390;2023-12-20T08:18:32;10.03;;;6.33;;
22131;SDS011;11232;51.748;19.390;2023-12-20T08:20:58;13.50;;;6.67;;
22131;SDS011;11232;51.748;19.390;2023-12-20T08:23:26;11.37;;;6.70;;
22131;SDS011;11232;51.748;19.390;2023-12-20T08:25:51;9.07;;;5.67;;
22131;SDS011;11232;51.748;19.390;2023-12-20T08:28:17;11.47;;;6.33;;
22131;SDS011;11232;51.748;19.390;2023-12-20T08:30:43;10.63;;;6.23;;
22131;SDS011;11232;51.748;19.390;2023-12-20T08:33:08;8.83;;;5.43;;
22131;SDS011;11232;51.748;19.390;2023-12-20T08:35:37;8.23;;;5.40;;
22131;SDS011;11232;51.748;19.390;2023-12-20T08:38:03;8.87;;;5.10;;
22131;SDS011;11232;51.748;19.390;2023-12-20T08:40:29;8.37;;;5.63;;
22131;SDS011;11232;51.748;19.390;2023-12-20T08:42:55;7.50;;;5.20;;
22131;SDS011;11232;51.748;19.390;2023-12-20T08:45:20;10.27;;;5.50;;
22131;SDS011;11232;51.748;19.390;2023-12-20T08:47:46;8.23;;;5.57;;
22131;SDS011;11232;51.748;19.390;2023-12-20T08:50:12;8.53;;;5.50;;
22131;SDS011;11232;51.748;19.390;2023-12-20T08:52:38;8.23;;;5.57;;
22131;SDS011;11232;51.748;19.390;2023-12-20T08:55:03;8.20;;;5.67;;
22131;SDS011;11232;51.748;19.390;2023-12-20T08:57:29;7.53;;;5.23;;
22131;SDS011;11232;51.748;19.390;2023-12-20T08:59:56;9.10;;;5.93;;
22131;SDS011;11232;51.748;19.390;2023-12-20T09:02:22;9.77;;;5.63;;
22131;SDS011;11232;51.748;19.390;2023-12-20T09:04:48;9.47;;;6.10;;
22131;SDS011;11232;51.748;19.390;2023-12-20T09:07:26;9.63;;;6.07;;
22131;SDS011;11232;51.748;19.390;2023-12-20T09:09:52;9.63;;;5.73;;
22131;SDS011;11232;51.748;19.390;2023-12-20T09:12:18;10.30;;;5.10;;
22131;SDS011;11232;51.748;19.390;2023-12-20T09:14:48;6.73;;;4.63;;
22131;SDS011;11232;51.748;19.390;2023-12-20T09:17:15;7.67;;;4.97;;
22131;SDS011;11232;51.748;19.390;2023-12-20T09:19:41;6.30;;;4.50;;
22131;SDS011;11232;51.748;19.390;2023-12-20T09:22:08;6.27;;;4.60;;
22131;SDS011;11232;51.748;19.390;2023-12-20T09:24:34;7.60;;;4.53;;
22131;SDS011;11232;51.748;19.390;2023-12-20T09:27:00;6.53;;;4.77;;
22131;SDS011;11232;51.748;19.390;2023-12-20T09:29:25;6.83;;;4.70;;
22131;SDS011;11232;51.748;19.390;2023-12-20T09:31:51;6.57;;;4.67;;
22131;SDS011;11232;51.748;19.390;2023-12-20T09:34:16;7.00;;;4.90;;
22131;SDS011;11232;51.748;19.390;2023-12-20T09:36:42;8.17;;;5.40;;
22131;SDS011;11232;51.748;19.390;2023-12-20T09:39:15;7.33;;;4.80;;
22131;SDS011;11232;51.748;19.390;2023-12-20T09:41:44;10.37;;;5.17;;
22131;SDS011;11232;51.748;19.390;2023-12-20T09:44:15;8.83;;;5.20;;
22131;SDS011;11232;51.748;19.390;2023-12-20T09:46:43;8.17;;;4.87;;
22131;SDS011;11232;51.748;19.390;2023-12-20T09:49:10;8.47;;;5.90;;
22131;SDS011;11232;51.748;19.390;2023-12-20T09:51:37;8.40;;;5.70;;
22131;SDS011;11232;51.748;19.390;2023-12-20T09:54:03;8.10;;;5.33;;
22131;SDS011;11232;51.748;19.390;2023-12-20T09:56:29;12.63;;;5.27;;
22131;SDS011;11232;51.748;19.390;2023-12-20T09:58:55;8.90;;;5.47;;
22131;SDS011;11232;51.748;19.390;2023-12-20T10:01:21;19.73;;;9.90;;
22131;SDS011;11232;51.748;19.390;2023-12-20T10:03:48;9.07;;;6.00;;
22131;SDS011;11232;51.748;19.390;2023-12-20T10:06:16;10.23;;;6.03;;
22131;SDS011;11232;51.748;19.390;2023-12-20T10:08:42;9.77;;;5.97;;
22131;SDS011;11232;51.748;19.390;2023-12-20T10:11:08;12.80;;;5.73;;
22131;SDS011;11232;51.748;19.390;2023-12-20T10:13:34;8.23;;;5.37;;
22131;SDS011;11232;51.748;19.390;2023-12-20T10:16:03;6.30;;;4.03;;
22131;SDS011;11232;51.748;19.390;2023-12-20T10:18:31;6.67;;;4.40;;
22131;SDS011;11232;51.748;19.390;2023-12-20T10:20:57;8.97;;;4.27;;
22131;SDS011;11232;51.748;19.390;2023-12-20T10:23:22;8.33;;;4.93;;
22131;SDS011;11232;51.748;19.390;2023-12-20T10:25:58;7.17;;;4.47;;
22131;SDS011;11232;51.748;19.390;2023-12-20T10:28:24;6.47;;;4.47;;
22131;SDS011;11232;51.748;19.390;2023-12-20T10:30:54;8.10;;;4.77;;
22131;SDS011;11232;51.748;19.390;2023-12-20T10:33:26;6.90;;;4.90;;
22131;SDS011;11232;51.748;19.390;2023-12-20T10:35:53;8.47;;;5.03;;
22131;SDS011;11232;51.748;19.390;2023-12-20T10:38:20;7.70;;;5.27;;
22131;SDS011;11232;51.748;19.390;2023-12-20T10:40:47;9.80;;;5.43;;
22131;SDS011;11232;51.748;19.390;2023-12-20T10:43:12;7.17;;;5.10;;
22131;SDS011;11232;51.748;19.390;2023-12-20T10:45:41;7.43;;;5.07;;
22131;SDS011;11232;51.748;19.390;2023-12-20T10:48:09;9.60;;;6.00;;
22131;SDS011;11232;51.748;19.390;2023-12-20T10:50:36;10.43;;;6.13;;
22131;SDS011;11232;51.748;19.390;2023-12-20T10:53:06;10.47;;;6.40;;
22131;SDS011;11232;51.748;19.390;2023-12-20T10:55:32;10.33;;;7.10;;
22131;SDS011;11232;51.748;19.390;2023-12-20T10:58:03;11.80;;;7.57;;
22131;SDS011;11232;51.748;19.390;2023-12-20T11:00:32;11.30;;;7.53;;
22131;SDS011;11232;51.748;19.390;2023-12-20T11:03:00;13.37;;;7.73;;
22131;SDS011;11232;51.748;19.390;2023-12-20T11:08:12;10.53;;;7.03;;
22131;SDS011;11232;51.748;19.390;2023-12-20T11:13:32;21.03;;;10.73;;
22131;SDS011;11232;51.748;19.390;2023-12-20T11:16:02;14.33;;;8.00;;
22131;SDS011;11232;51.748;19.390;2023-12-20T11:18:28;12.77;;;7.40;;
22131;SDS011;11232;51.748;19.390;2023-12-20T11:20:55;14.20;;;7.40;;
22131;SDS011;11232;51.748;19.390;2023-12-20T11:23:31;14.23;;;8.23;;
22131;SDS011;11232;51.748;19.390;2023-12-20T11:26:01;15.93;;;7.97;;
22131;SDS011;11232;51.748;19.390;2023-12-20T11:28:27;13.47;;;7.80;;
22131;SDS011;11232;51.748;19.390;2023-12-20T11:30:55;11.53;;;7.60;;
22131;SDS011;11232;51.748;19.390;2023-12-20T11:33:37;12.73;;;7.23;;
22131;SDS011;11232;51.748;19.390;2023-12-20T11:36:07;10.97;;;7.17;;
22131;SDS011;11232;51.748;19.390;2023-12-20T11:38:38;13.07;;;7.30;;
22131;SDS011;11232;51.748;19.390;2023-12-20T11:41:14;13.63;;;7.57;;
22131;SDS011;11232;51.748;19.390;2023-12-20T11:43:41;13.33;;;7.43;;
22131;SDS011;11232;51.748;19.390;2023-12-20T11:46:07;11.93;;;7.50;;
22131;SDS011;11232;51.748;19.390;2023-12-20T11:48:38;13.80;;;7.33;;
22131;SDS011;11232;51.748;19.390;2023-12-20T11:51:11;13.80;;;6.67;;
22131;SDS011;11232;51.748;19.390;2023-12-20T11:53:37;13.97;;;7.63;;
22131;SDS011;11232;51.748;19.390;2023-12-20T11:56:04;15.10;;;7.67;;
22131;SDS011;11232;51.748;19.390;2023-12-20T11:58:31;13.50;;;8.20;;
22131;SDS011;11232;51.748;19.390;2023-12-20T12:00:57;15.57;;;9.20;;
22131;SDS011;11232;51.748;19.390;2023-12-20T12:03:23;16.60;;;8.50;;
22131;SDS011;11232;51.748;19.390;2023-12-20T12:05:49;13.30;;;8.20;;
22131;SDS011;11232;51.748;19.390;2023-12-20T12:08:15;13.47;;;8.20;;
22131;SDS011;11232;51.748;19.390;2023-12-20T12:10:42;13.80;;;8.23;;
22131;SDS011;11232;51.748;19.390;2023-12-20T12:13:08;12.33;;;8.07;;
22131;SDS011;11232;51.748;19.390;2023-12-20T12:15:34;14.00;;;8.93;;
22131;SDS011;11232;51.748;19.390;2023-12-20T12:18:01;17.43;;;8.67;;
22131;SDS011;11232;51.748;19.390;2023-12-20T12:20:26;26.93;;;13.93;;
22131;SDS011;11232;51.748;19.390;2023-12-20T12:23:01;14.37;;;8.40;;
22131;SDS011;11232;51.748;19.390;2023-12-20T12:25:29;14.43;;;7.97;;
22131;SDS011;11232;51.748;19.390;2023-12-20T12:27:56;13.77;;;8.17;;
22131;SDS011;11232;51.748;19.390;2023-12-20T12:30:23;12.47;;;8.10;;
22131;SDS011;11232;51.748;19.390;2023-12-20T12:32:48;16.63;;;8.40;;
22131;SDS011;11232;51.748;19.390;2023-12-20T12:35:16;15.80;;;7.50;;
22131;SDS011;11232;51.748;19.390;2023-12-20T12:37:42;16.20;;;7.83;;
22131;SDS011;11232;51.748;19.390;2023-12-20T12:40:12;14.37;;;7.70;;
22131;SDS011;11232;51.748;19.390;2023-12-20T12:42:39;12.63;;;7.00;;
22131;SDS011;11232;51.748;19.390;2023-12-20T12:45:06;13.67;;;7.03;;
22131;SDS011;11232;51.748;19.390;2023-12-20T12:47:32;13.23;;;7.80;;
22131;SDS011;11232;51.748;19.390;2023-12-20T12:49:58;10.23;;;6.80;;
22131;SDS011;11232;51.748;19.390;2023-12-20T12:52:23;13.77;;;7.53;;
22131;SDS011;11232;51.748;19.390;2023-12-20T12:54:49;12.33;;;7.37;;
22131;SDS011;11232;51.748;19.390;2023-12-20T12:57:14;11.63;;;7.23;;
22131;SDS011;11232;51.748;19.390;2023-12-20T12:59:44;17.13;;;7.03;;
22131;SDS011;11232;51.748;19.390;2023-12-20T13:02:11;13.80;;;5.90;;
22131;SDS011;11232;51.748;19.390;2023-12-20T13:04:38;11.30;;;6.70;;
22131;SDS011;11232;51.748;19.390;2023-12-20T13:07:04;14.07;;;7.20;;
22131;SDS011;11232;51.748;19.390;2023-12-20T13:09:30;10.47;;;6.53;;
22131;SDS011;11232;51.748;19.390;2023-12-20T13:11:56;10.17;;;5.87;;
22131;SDS011;11232;51.748;19.390;2023-12-20T13:14:22;12.17;;;6.10;;
22131;SDS011;11232;51.748;19.390;2023-12-20T13:16:47;16.00;;;8.37;;
22131;SDS011;11232;51.748;19.390;2023-12-20T13:19:13;14.03;;;7.23;;
22131;SDS011;11232;51.748;19.390;2023-12-20T13:21:38;13.63;;;5.70;;
22131;SDS011;11232;51.748;19.390;2023-12-20T13:24:05;8.77;;;5.13;;
22131;SDS011;11232;51.748;19.390;2023-12-20T13:26:30;10.77;;;5.00;;
22131;SDS011;11232;51.748;19.390;2023-12-20T13:28:56;12.90;;;4.83;;
22131;SDS011;11232;51.748;19.390;2023-12-20T13:31:22;12.17;;;4.80;;
22131;SDS011;11232;51.748;19.390;2023-12-20T13:33:47;7.87;;;4.30;;
22131;SDS011;11232;51.748;19.390;2023-12-20T13:36:13;6.97;;;4.60;;
22131;SDS011;11232;51.748;19.390;2023-12-20T13:38:39;8.63;;;4.73;;
22131;SDS011;11232;51.748;19.390;2023-12-20T13:41:04;10.63;;;4.40;;
22131;SDS011;11232;51.748;19.390;2023-12-20T13:43:30;10.17;;;4.33;;
22131;SDS011;11232;51.748;19.390;2023-12-20T13:45:57;7.37;;;4.37;;
22131;SDS011;11232;51.748;19.390;2023-12-20T13:48:23;8.50;;;4.57;;
22131;SDS011;11232;51.748;19.390;2023-12-20T13:50:49;8.80;;;4.93;;
22131;SDS011;11232;51.748;19.390;2023-12-20T13:53:15;11.00;;;4.50;;
22131;SDS011;11232;51.748;19.390;2023-12-20T13:55:40;7.03;;;4.60;;
22131;SDS011;11232;51.748;19.390;2023-12-20T13:58:06;12.70;;;4.97;;
22131;SDS011;11232;51.748;19.390;2023-12-20T14:00:32;14.33;;;4.97;;
22131;SDS011;11232;51.748;19.390;2023-12-20T14:02:57;8.10;;;4.70;;
22131;SDS011;11232;51.748;19.390;2023-12-20T14:05:23;10.97;;;4.03;;
22131;SDS011;11232;51.748;19.390;2023-12-20T14:07:49;8.90;;;4.40;;
22131;SDS011;11232;51.748;19.390;2023-12-20T14:10:15;8.73;;;4.73;;
22131;SDS011;11232;51.748;19.390;2023-12-20T14:12:41;6.83;;;3.83;;
22131;SDS011;11232;51.748;19.390;2023-12-20T14:15:07;7.20;;;3.93;;
22131;SDS011;11232;51.748;19.390;2023-12-20T14:17:36;9.63;;;4.03;;
22131;SDS011;11232;51.748;19.390;2023-12-20T14:20:02;8.40;;;3.90;;
22131;SDS011;11232;51.748;19.390;2023-12-20T14:22:29;6.87;;;4.20;;